createdAt,value
2022-10-31T00:01:22.601Z,12.80
2022-10-31T00:03:49.596Z,12.70
2022-10-31T00:06:19.166Z,12.60
2022-10-31T00:08:55.127Z,12.50
2022-10-31T00:11:22.133Z,12.60
2022-10-31T00:13:49.159Z,12.60
2022-10-31T00:16:23.520Z,12.60
2022-10-31T00:18:54.774Z,12.50
2022-10-31T00:21:21.831Z,12.40
2022-10-31T00:23:48.864Z,12.30
2022-10-31T00:26:15.868Z,12.20
2022-10-31T00:28:43.018Z,12.10
2022-10-31T00:31:11.205Z,12.00
2022-10-31T00:33:38.828Z,11.90
2022-10-31T00:36:06.693Z,12.10
2022-10-31T00:38:33.623Z,12.10
2022-10-31T00:41:00.766Z,12.20
2022-10-31T00:43:27.588Z,12.10
2022-10-31T00:45:54.652Z,12.00
2022-10-31T00:48:25.020Z,12.00
2022-10-31T00:50:53.285Z,12.10
2022-10-31T00:53:20.204Z,12.10
2022-10-31T00:55:47.564Z,12.00
2022-10-31T01:00:50.986Z,11.80
2022-10-31T01:03:18.879Z,11.60
2022-10-31T01:05:45.972Z,11.50
2022-10-31T01:08:12.846Z,11.40
2022-10-31T01:10:39.734Z,11.40
2022-10-31T01:13:06.697Z,11.50
2022-10-31T01:15:33.749Z,11.50
2022-10-31T01:18:00.943Z,11.50
2022-10-31T01:20:30.688Z,11.60
2022-10-31T01:22:57.923Z,11.60
2022-10-31T01:25:27.619Z,11.50
2022-10-31T01:27:55.343Z,11.60
2022-10-31T01:30:23.795Z,11.70
2022-10-31T01:32:51.822Z,11.70
2022-10-31T01:35:19.420Z,11.80
2022-10-31T01:37:46.569Z,11.50
2022-10-31T01:40:31.479Z,11.30
2022-10-31T01:42:59.347Z,11.20
2022-10-31T01:45:28.027Z,11.20
2022-10-31T01:47:55.237Z,11.20
2022-10-31T01:50:33.675Z,11.10
2022-10-31T01:53:00.698Z,11.20
2022-10-31T01:55:35.848Z,11.30
2022-10-31T01:58:16.561Z,11.40
2022-10-31T02:00:48.265Z,11.40
2022-10-31T02:03:17.635Z,11.40
2022-10-31T02:05:45.884Z,11.40
2022-10-31T02:08:28.049Z,11.40
2022-10-31T02:10:56.306Z,11.40
2022-10-31T02:15:55.995Z,11.10
2022-10-31T02:18:23.876Z,11.00
2022-10-31T02:21:03.308Z,11.10
2022-10-31T02:23:45.230Z,11.20
2022-10-31T02:26:24.571Z,11.20
2022-10-31T02:29:11.455Z,11.10
2022-10-31T02:31:47.155Z,11.10
2022-10-31T02:34:23.519Z,11.10
2022-10-31T02:37:11.456Z,11.10
2022-10-31T02:39:43.652Z,11.00
2022-10-31T02:42:20.157Z,11.00
2022-10-31T02:44:52.993Z,11.00
2022-10-31T02:47:23.426Z,11.00
2022-10-31T02:50:03.938Z,11.10
2022-10-31T02:52:33.119Z,11.00
2022-10-31T02:55:28.010Z,11.00
2022-10-31T02:58:10.131Z,11.00
2022-10-31T03:00:44.778Z,11.10
2022-10-31T03:03:19.749Z,11.00
2022-10-31T03:06:08.471Z,11.00
2022-10-31T03:08:45.532Z,10.90
2022-10-31T03:11:13.092Z,10.90
2022-10-31T03:13:47.875Z,10.80
2022-10-31T03:16:30.382Z,10.80
2022-10-31T03:19:00.267Z,10.70
2022-10-31T03:21:35.057Z,10.60
2022-10-31T03:24:02.190Z,10.70
2022-10-31T03:26:29.054Z,10.70
2022-10-31T03:29:04.244Z,10.80
2022-10-31T03:31:43.910Z,10.90
2022-10-31T03:34:10.904Z,10.80
2022-10-31T03:36:38.653Z,10.90
2022-10-31T03:39:06.466Z,10.80
2022-10-31T03:41:34.825Z,10.90
2022-10-31T03:44:12.214Z,11.00
2022-10-31T03:46:40.831Z,11.10
2022-10-31T03:49:07.784Z,11.10
2022-10-31T03:51:34.745Z,11.10
2022-10-31T03:54:25.338Z,11.10
2022-10-31T03:57:02.011Z,11.00
2022-10-31T03:59:34.514Z,11.00
2022-10-31T04:02:08.329Z,10.90
2022-10-31T04:04:36.162Z,10.90
2022-10-31T04:07:05.098Z,10.90
2022-10-31T04:09:33.601Z,11.00
2022-10-31T04:12:00.870Z,11.00
2022-10-31T04:14:48.783Z,10.90
2022-10-31T04:17:17.157Z,10.90
2022-10-31T04:19:45.297Z,10.90
2022-10-31T04:22:12.914Z,10.80
2022-10-31T04:24:40.573Z,10.80
2022-10-31T04:27:08.822Z,10.60
2022-10-31T04:29:35.865Z,10.60
2022-10-31T04:32:02.775Z,10.70
2022-10-31T04:34:29.606Z,10.60
2022-10-31T04:36:56.458Z,10.60
2022-10-31T04:39:26.782Z,10.60
2022-10-31T04:42:19.569Z,10.70
2022-10-31T04:44:46.621Z,10.80
2022-10-31T04:47:17.440Z,10.80
2022-10-31T04:49:44.542Z,10.80
2022-10-31T04:52:13.778Z,10.70
2022-10-31T04:54:41.182Z,10.70
2022-10-31T04:57:48.173Z,10.60
2022-10-31T05:00:17.663Z,10.10
2022-10-31T05:02:48.445Z,10.20
2022-10-31T05:05:16.324Z,10.50
2022-10-31T05:07:43.607Z,10.40
2022-10-31T05:10:14.746Z,10.40
2022-10-31T05:12:58.907Z,10.30
2022-10-31T05:15:32.007Z,10.40
2022-10-31T05:18:17.532Z,10.40
2022-10-31T05:21:02.905Z,10.50
2022-10-31T05:23:37.843Z,10.40
2022-10-31T05:26:07.240Z,10.30
2022-10-31T05:28:34.905Z,10.20
2022-10-31T05:31:03.440Z,10.20
2022-10-31T05:33:31.360Z,10.30
2022-10-31T05:36:16.751Z,10.30
2022-10-31T05:38:54.236Z,10.50
2022-10-31T05:41:41.361Z,10.50
2022-10-31T05:44:19.534Z,10.60
2022-10-31T05:47:09.498Z,10.30
2022-10-31T05:49:55.220Z,10.50
2022-10-31T05:52:40.641Z,10.60
2022-10-31T05:55:17.370Z,10.70
2022-10-31T05:57:59.093Z,10.70
2022-10-31T06:00:26.502Z,10.70
2022-10-31T06:03:00.960Z,10.70
2022-10-31T06:05:41.130Z,10.70
2022-10-31T06:08:08.133Z,10.70
2022-10-31T06:10:36.214Z,10.70
2022-10-31T06:13:03.133Z,10.70
2022-10-31T06:15:43.902Z,10.60
2022-10-31T06:18:11.929Z,10.70
2022-10-31T06:20:48.013Z,10.70
2022-10-31T06:23:15.233Z,10.60
2022-10-31T06:25:44.310Z,10.60
2022-10-31T06:28:12.621Z,10.50
2022-10-31T06:30:51.872Z,10.50
2022-10-31T06:33:19.364Z,10.60
2022-10-31T06:35:56.034Z,10.60
2022-10-31T06:38:23.154Z,10.60
2022-10-31T06:40:50.357Z,10.60
2022-10-31T06:43:27.591Z,10.70
2022-10-31T06:46:13.560Z,10.80
2022-10-31T06:48:47.714Z,10.90
2022-10-31T06:51:20.362Z,10.90
2022-10-31T06:53:49.748Z,10.70
2022-10-31T06:56:17.758Z,10.80
2022-10-31T06:58:49.247Z,10.70
2022-10-31T07:01:19.089Z,10.70
2022-10-31T07:03:46.428Z,10.60
2022-10-31T07:06:13.819Z,10.60
2022-10-31T07:08:40.975Z,10.60
2022-10-31T07:11:07.961Z,10.70
2022-10-31T07:13:35.064Z,10.60
2022-10-31T07:16:07.771Z,10.70
2022-10-31T07:18:36.346Z,10.70
2022-10-31T07:21:03.609Z,10.60
2022-10-31T07:23:30.575Z,10.60
2022-10-31T07:26:20.635Z,10.60
2022-10-31T07:28:49.211Z,10.70
2022-10-31T07:31:19.702Z,10.60
2022-10-31T07:33:46.612Z,10.60
2022-10-31T07:36:45.767Z,10.50
2022-10-31T07:39:13.503Z,10.40
2022-10-31T07:41:41.535Z,10.40
2022-10-31T07:44:09.948Z,10.40
2022-10-31T07:47:08.793Z,10.60
2022-10-31T07:49:54.321Z,10.60
2022-10-31T07:52:39.779Z,10.70
2022-10-31T07:55:39.296Z,10.80
2022-10-31T07:58:09.940Z,11.00
2022-10-31T08:00:40.895Z,10.90
2022-10-31T08:03:19.526Z,10.90
2022-10-31T08:05:58.423Z,10.90
2022-10-31T08:08:51.621Z,10.90
2022-10-31T08:11:19.390Z,11.10
2022-10-31T08:13:48.193Z,11.20
2022-10-31T08:16:15.748Z,11.40
2022-10-31T08:18:56.795Z,11.50
2022-10-31T08:21:24.248Z,11.70
2022-10-31T08:23:51.195Z,11.90
2022-10-31T08:26:20.647Z,12.30
2022-10-31T08:28:51.248Z,12.60
2022-10-31T08:31:21.047Z,13.10
2022-10-31T08:33:47.940Z,13.50
2022-10-31T08:36:34.114Z,13.90
2022-10-31T08:39:16.289Z,14.40
2022-10-31T08:41:43.196Z,14.70
2022-10-31T08:44:13.247Z,15.00
2022-10-31T08:46:40.603Z,15.30
2022-10-31T08:49:07.619Z,15.60
2022-10-31T08:51:34.599Z,15.90
2022-10-31T08:54:01.802Z,16.00
2022-10-31T08:56:31.705Z,16.10
2022-10-31T08:58:59.765Z,16.10
2022-10-31T09:01:46.821Z,16.20
2022-10-31T09:04:15.031Z,16.50
2022-10-31T09:06:50.484Z,16.70
2022-10-31T09:09:28.900Z,16.80
2022-10-31T09:11:55.853Z,16.80
2022-10-31T09:14:41.404Z,17.00
2022-10-31T09:17:34.610Z,16.90
2022-10-31T09:20:20.447Z,16.90
2022-10-31T09:22:48.336Z,17.00
2022-10-31T09:25:15.490Z,17.30
2022-10-31T09:27:49.115Z,17.50
2022-10-31T09:30:16.845Z,17.50
2022-10-31T09:32:44.213Z,17.40
2022-10-31T09:37:44.069Z,17.50
2022-10-31T09:40:11.347Z,17.30
2022-10-31T09:42:53.851Z,17.30
2022-10-31T09:45:26.332Z,17.40
2022-10-31T09:48:08.370Z,17.40
2022-10-31T09:50:50.027Z,17.40
2022-10-31T09:53:45.731Z,17.40
2022-10-31T09:56:21.405Z,17.40
2022-10-31T09:58:59.276Z,17.40
2022-10-31T10:01:32.524Z,17.50
2022-10-31T10:04:06.374Z,17.50
2022-10-31T10:06:53.255Z,17.50
2022-10-31T10:09:38.762Z,17.60
2022-10-31T10:12:40.259Z,17.50
2022-10-31T10:15:25.873Z,17.30
2022-10-31T10:18:11.278Z,17.40
2022-10-31T10:20:50.333Z,17.50
2022-10-31T10:23:44.654Z,17.50
2022-10-31T10:26:14.928Z,17.60
2022-10-31T10:28:43.086Z,17.60
2022-10-31T10:31:23.073Z,17.50
2022-10-31T10:34:02.644Z,17.50
2022-10-31T10:36:40.627Z,17.60
2022-10-31T10:39:20.357Z,17.60
2022-10-31T10:42:09.294Z,17.70
2022-10-31T10:45:02.138Z,17.80
2022-10-31T10:47:39.762Z,17.90
2022-10-31T10:50:27.479Z,17.90
2022-10-31T10:53:22.072Z,17.90
2022-10-31T10:55:58.293Z,18.00
2022-10-31T10:58:25.177Z,18.00
2022-10-31T11:00:52.205Z,18.00
2022-10-31T11:03:19.311Z,18.00
2022-10-31T11:05:59.336Z,18.20
2022-10-31T11:08:33.410Z,18.30
2022-10-31T11:11:01.936Z,18.30
2022-10-31T11:13:29.104Z,18.20
2022-10-31T11:16:08.873Z,18.00
2022-10-31T11:18:43.101Z,17.70
2022-10-31T11:21:28.413Z,17.60
2022-10-31T11:24:13.433Z,17.70
2022-10-31T11:26:51.768Z,17.70
2022-10-31T11:29:22.756Z,17.80
2022-10-31T11:31:53.822Z,17.90
2022-10-31T11:34:32.042Z,18.00
2022-10-31T11:37:04.328Z,18.10
2022-10-31T11:39:31.264Z,18.20
2022-10-31T11:42:04.907Z,18.10
2022-10-31T11:44:34.739Z,18.00
2022-10-31T11:47:03.665Z,18.00
2022-10-31T11:49:35.866Z,17.90
2022-10-31T11:52:14.114Z,17.90
2022-10-31T11:54:56.885Z,17.90
2022-10-31T11:57:34.578Z,17.80
2022-10-31T12:00:04.275Z,17.70
2022-10-31T12:02:39.079Z,17.70
2022-10-31T12:05:12.320Z,17.80
2022-10-31T12:07:39.453Z,18.00
2022-10-31T12:10:17.799Z,18.00
2022-10-31T12:12:58.490Z,18.00
2022-10-31T12:15:37.949Z,18.00
2022-10-31T12:18:11.061Z,17.90
2022-10-31T12:21:08.516Z,17.70
2022-10-31T12:23:41.530Z,17.60
2022-10-31T12:26:19.703Z,17.50
2022-10-31T12:29:07.899Z,17.60
2022-10-31T12:31:47.513Z,17.70
2022-10-31T12:35:12.656Z,17.70
2022-10-31T12:37:45.131Z,17.60
2022-10-31T12:40:31.231Z,17.60
2022-10-31T12:43:17.018Z,17.50
2022-10-31T12:45:58.045Z,17.50
2022-10-31T12:48:27.824Z,17.60
2022-10-31T12:51:03.398Z,17.70
2022-10-31T12:53:38.203Z,17.70
2022-10-31T12:56:32.621Z,17.70
2022-10-31T12:59:12.529Z,17.70
2022-10-31T13:01:54.567Z,17.70
2022-10-31T13:05:01.447Z,17.80
2022-10-31T13:07:44.670Z,17.80
2022-10-31T13:10:30.657Z,17.80
2022-10-31T13:13:02.405Z,17.90
2022-10-31T13:15:32.389Z,17.90
2022-10-31T13:18:01.077Z,17.80
2022-10-31T13:20:33.321Z,17.70
2022-10-31T13:23:48.471Z,17.60
2022-10-31T13:26:15.093Z,17.50
2022-10-31T13:28:44.663Z,17.40
2022-10-31T13:31:11.742Z,17.50
2022-10-31T13:33:52.674Z,17.60
2022-10-31T13:36:41.788Z,17.60
2022-10-31T13:39:14.599Z,17.60
2022-10-31T13:42:13.294Z,17.60
2022-10-31T13:44:40.248Z,17.60
2022-10-31T13:47:39.604Z,17.50
2022-10-31T13:50:24.285Z,17.60
2022-10-31T13:52:51.367Z,17.70
2022-10-31T13:56:23.310Z,17.70
2022-10-31T13:59:06.746Z,17.70
2022-10-31T14:01:33.944Z,17.50
2022-10-31T14:04:23.949Z,17.50
2022-10-31T14:07:12.044Z,17.40
2022-10-31T14:10:07.740Z,17.30
2022-10-31T14:12:44.558Z,17.30
2022-10-31T14:15:17.771Z,17.20
2022-10-31T14:17:47.668Z,17.20
2022-10-31T14:20:15.155Z,17.20
2022-10-31T14:22:43.054Z,17.20
2022-10-31T14:25:36.727Z,17.10
2022-10-31T14:28:25.055Z,17.10
2022-10-31T14:30:55.675Z,17.00
2022-10-31T14:33:23.591Z,17.00
2022-10-31T14:36:08.017Z,16.90
2022-10-31T14:38:44.384Z,16.80
2022-10-31T14:41:25.278Z,16.80
2022-10-31T14:44:02.912Z,16.70
2022-10-31T14:46:54.622Z,16.70
2022-10-31T14:49:32.930Z,16.70
2022-10-31T14:52:00.287Z,16.60
2022-10-31T14:54:31.345Z,16.60
2022-10-31T14:57:09.531Z,16.60
2022-10-31T14:59:38.513Z,16.60
2022-10-31T15:02:16.409Z,16.50
2022-10-31T15:04:43.443Z,16.50
2022-10-31T15:07:25.399Z,16.50
2022-10-31T15:10:03.684Z,16.50
2022-10-31T15:12:35.289Z,16.50
2022-10-31T15:15:19.985Z,16.40
2022-10-31T15:18:01.338Z,16.40
2022-10-31T15:20:29.385Z,16.40
2022-10-31T15:22:57.489Z,16.40
2022-10-31T15:25:26.026Z,16.40
2022-10-31T15:27:53.824Z,16.40
2022-10-31T15:30:22.388Z,16.30
2022-10-31T15:32:57.425Z,16.30
2022-10-31T15:35:31.897Z,16.30
2022-10-31T15:38:00.024Z,16.30
2022-10-31T15:40:27.808Z,16.30
2022-10-31T15:42:57.550Z,16.30
2022-10-31T15:45:26.494Z,16.20
2022-10-31T15:48:01.920Z,16.20
2022-10-31T15:50:41.624Z,16.20
2022-10-31T15:53:20.495Z,16.20
2022-10-31T15:56:00.446Z,16.20
2022-10-31T15:58:28.076Z,16.10
2022-10-31T16:01:05.948Z,16.10
2022-10-31T16:03:34.244Z,16.10
2022-10-31T16:06:05.504Z,16.10
2022-10-31T16:08:32.501Z,16.20
2022-10-31T16:11:08.456Z,16.10
2022-10-31T16:13:37.078Z,16.20
2022-10-31T16:16:34.131Z,16.10
2022-10-31T16:19:02.273Z,16.10
2022-10-31T16:21:33.590Z,16.10
2022-10-31T16:24:05.922Z,16.10
2022-10-31T16:26:33.904Z,16.00
2022-10-31T16:29:05.793Z,16.00
2022-10-31T16:31:40.145Z,16.00
2022-10-31T16:34:26.621Z,16.00
2022-10-31T16:36:54.017Z,16.00
2022-10-31T16:39:21.002Z,15.90
2022-10-31T16:41:50.355Z,15.90
2022-10-31T16:44:35.467Z,15.90
2022-10-31T16:47:15.796Z,15.90
2022-10-31T16:49:48.358Z,15.90
2022-10-31T16:52:15.540Z,15.90
2022-10-31T16:54:42.703Z,15.90
2022-10-31T16:57:18.412Z,15.90
2022-10-31T16:59:46.438Z,15.90
2022-10-31T17:02:15.673Z,15.80
2022-10-31T17:04:42.708Z,15.90
2022-10-31T17:07:09.627Z,15.90
2022-10-31T17:09:36.552Z,15.80
2022-10-31T17:12:03.578Z,15.80
2022-10-31T17:14:30.541Z,15.90
2022-10-31T17:17:00.130Z,15.80
2022-10-31T17:19:27.075Z,15.70
2022-10-31T17:21:54.001Z,15.50
2022-10-31T17:24:20.894Z,15.30
2022-10-31T17:26:47.869Z,15.20
2022-10-31T17:29:15.217Z,15.10
2022-10-31T17:31:42.397Z,15.00
2022-10-31T17:34:09.632Z,14.90
2022-10-31T17:36:36.704Z,14.90
2022-10-31T17:39:05.529Z,14.80
2022-10-31T17:41:32.464Z,14.80
2022-10-31T17:43:59.732Z,14.70
2022-10-31T17:46:27.054Z,14.70
2022-10-31T17:48:53.942Z,14.70
2022-10-31T17:51:20.838Z,14.70
2022-10-31T17:53:48.023Z,14.60
2022-10-31T17:56:15.031Z,14.60
2022-10-31T17:58:42.035Z,14.70
2022-10-31T18:01:16.059Z,14.60
2022-10-31T18:03:43.038Z,14.70
2022-10-31T18:06:10.646Z,14.60
2022-10-31T18:08:38.548Z,14.60
2022-10-31T18:11:14.722Z,14.60
2022-10-31T18:13:42.211Z,14.70
2022-10-31T18:16:13.866Z,14.70
2022-10-31T18:18:40.774Z,14.70
2022-10-31T18:21:07.744Z,14.70
2022-10-31T18:23:34.646Z,14.80
2022-10-31T18:26:02.123Z,14.80
2022-10-31T18:28:29.043Z,14.80
2022-10-31T18:30:59.503Z,14.90
2022-10-31T18:33:26.726Z,14.90
2022-10-31T18:35:53.658Z,15.00
2022-10-31T18:38:20.547Z,15.00
2022-10-31T18:40:47.587Z,15.10
2022-10-31T18:43:14.596Z,15.20
2022-10-31T18:45:47.125Z,15.20
2022-10-31T18:48:16.118Z,15.20
2022-10-31T18:50:43.413Z,15.30
2022-10-31T18:53:10.531Z,15.30
2022-10-31T18:55:44.144Z,15.30
2022-10-31T18:58:16.460Z,15.40
2022-10-31T19:00:43.547Z,15.40
2022-10-31T19:03:10.514Z,15.40
2022-10-31T19:05:37.530Z,15.40
2022-10-31T19:08:04.823Z,15.40
2022-10-31T19:10:33.931Z,15.40
2022-10-31T19:13:01.225Z,15.40
2022-10-31T19:15:28.340Z,15.50
2022-10-31T19:17:55.663Z,15.50
2022-10-31T19:20:22.781Z,15.50
2022-10-31T19:22:49.777Z,15.50
2022-10-31T19:25:16.739Z,15.50
2022-10-31T19:27:43.687Z,15.50
2022-10-31T19:30:11.412Z,15.60
2022-10-31T19:32:38.442Z,15.60
2022-10-31T19:35:09.377Z,15.60
2022-10-31T19:37:36.791Z,15.70
2022-10-31T19:40:05.163Z,15.70
2022-10-31T19:42:33.172Z,15.70
2022-10-31T19:45:00.539Z,15.70
2022-10-31T19:47:27.560Z,15.70
2022-10-31T19:49:54.530Z,15.80
2022-10-31T19:52:21.442Z,15.80
2022-10-31T19:54:48.369Z,15.90
2022-10-31T19:57:15.230Z,15.90
2022-10-31T19:59:42.129Z,15.90
2022-10-31T20:02:17.079Z,16.00
2022-10-31T20:04:43.999Z,16.00
2022-10-31T20:07:10.908Z,16.00
2022-10-31T20:09:37.818Z,16.00
2022-10-31T20:12:04.959Z,16.10
2022-10-31T20:14:32.032Z,16.10
2022-10-31T20:16:59.054Z,16.10
2022-10-31T20:19:25.942Z,16.10
2022-10-31T20:21:53.007Z,16.10
2022-10-31T20:24:19.880Z,16.10
2022-10-31T20:26:46.858Z,16.10
2022-10-31T20:29:15.969Z,16.10
2022-10-31T20:31:43.524Z,16.10
2022-10-31T20:34:10.815Z,16.10
2022-10-31T20:36:37.985Z,16.10
2022-10-31T20:39:04.979Z,16.10
2022-10-31T20:41:32.325Z,16.10
2022-10-31T20:43:59.199Z,16.00
2022-10-31T20:46:26.962Z,16.10
2022-10-31T20:48:54.172Z,16.00
2022-10-31T20:51:25.026Z,16.00
2022-10-31T20:53:52.596Z,16.00
2022-10-31T20:56:20.779Z,16.00
2022-10-31T20:58:48.063Z,16.00
2022-10-31T21:01:19.243Z,16.00
2022-10-31T21:03:46.582Z,16.00
2022-10-31T21:06:17.137Z,16.00
2022-10-31T21:08:44.477Z,16.10
2022-10-31T21:11:13.201Z,16.10
2022-10-31T21:13:41.336Z,16.10
2022-10-31T21:16:17.968Z,16.10
2022-10-31T21:18:45.837Z,16.00
2022-10-31T21:21:33.279Z,16.00
2022-10-31T21:24:02.372Z,16.00
2022-10-31T21:26:30.935Z,15.90
2022-10-31T21:28:58.410Z,15.90
2022-10-31T21:31:25.635Z,15.90
2022-10-31T21:33:52.547Z,15.80
2022-10-31T21:36:19.451Z,15.70
2022-10-31T21:38:51.010Z,15.60
2022-10-31T21:41:18.200Z,15.60
2022-10-31T21:43:46.071Z,15.60
2022-10-31T21:46:14.621Z,15.60
2022-10-31T21:48:42.972Z,15.60
2022-10-31T21:51:15.280Z,15.60
2022-10-31T21:54:01.510Z,15.60
2022-10-31T21:56:28.614Z,15.60
2022-10-31T21:58:55.710Z,15.60
2022-10-31T22:01:23.806Z,15.60
2022-10-31T22:03:50.868Z,15.60
2022-10-31T22:06:17.826Z,15.60
2022-10-31T22:08:44.969Z,15.60
2022-10-31T22:11:16.377Z,15.60
2022-10-31T22:13:45.301Z,15.60
2022-10-31T22:16:13.935Z,15.60
2022-10-31T22:18:41.281Z,15.50
2022-10-31T22:21:13.042Z,15.50
2022-10-31T22:23:39.930Z,15.40
2022-10-31T22:26:08.962Z,15.40
2022-10-31T22:28:36.034Z,15.50
2022-10-31T22:31:06.377Z,15.50
2022-10-31T22:33:33.378Z,15.50
2022-10-31T22:36:03.125Z,15.50
2022-10-31T22:38:30.851Z,15.50
2022-10-31T22:40:58.918Z,15.50
2022-10-31T22:43:26.283Z,15.50
2022-10-31T22:46:00.400Z,15.50
2022-10-31T22:48:27.844Z,15.40
2022-10-31T22:50:54.790Z,15.40
2022-10-31T22:53:21.685Z,15.40
2022-10-31T22:55:51.650Z,15.40
2022-10-31T22:58:18.528Z,15.40
2022-10-31T23:00:45.511Z,15.40
2022-10-31T23:03:12.565Z,15.40
2022-10-31T23:05:39.491Z,15.40
2022-10-31T23:08:06.634Z,15.40
2022-10-31T23:10:35.807Z,15.40
2022-10-31T23:13:21.458Z,15.40
2022-10-31T23:15:48.358Z,15.20
2022-10-31T23:18:30.124Z,15.00
2022-10-31T23:21:03.044Z,14.80
2022-10-31T23:23:32.581Z,14.80
2022-10-31T23:26:18.478Z,14.70
2022-10-31T23:28:45.479Z,14.60
2022-10-31T23:31:12.369Z,14.50
2022-10-31T23:33:39.289Z,14.40
2022-10-31T23:36:06.392Z,14.40
2022-10-31T23:38:33.350Z,14.30
2022-10-31T23:41:00.218Z,14.30
2022-10-31T23:43:27.072Z,14.40
2022-10-31T23:45:53.931Z,14.30
2022-10-31T23:48:20.786Z,14.20
2022-10-31T23:50:47.988Z,14.20
2022-10-31T23:53:14.840Z,14.20
2022-10-31T23:55:41.747Z,14.20
2022-10-31T23:58:08.613Z,14.10
